WetterOnline ( https://www.wetteronline.de )

Wetter aktuell Greiz

Aktuelles Wetter: Plauen (389m)

6-stündlich | Neueste Meldungen
Ortszeit Temperatur Wetter
So, 02.10. 20:00 10.7° C wolkig
So, 02.10. 14:00 13.4° C bedeckt
So, 02.10. 8:00 9.8° C bewölkt
So, 02.10. 2:00 8.2° C leicht bewölkt
Sa, 01.10. 20:00 11.0° C bewölkt
Sa, 01.10. 14:00 9.1° C leichter Regen
Sa, 01.10. 8:00 6.7° C bedeckt
Sa, 01.10. 2:00 5.0° C wolkenlos
Ortszeit Temperatur Wetter
So, 02.10. 22:00 10.9° C bewölkt
So, 02.10. 21:50 10.9° C bewölkt
So, 02.10. 21:40 10.7° C bedeckt
So, 02.10. 21:30 10.5° C bedeckt
So, 02.10. 21:20 10.5° C bedeckt
So, 02.10. 21:10 10.7° C leichter Regen
So, 02.10. 21:00 10.9° C bewölkt
So, 02.10. 20:30 10.2° C wolkig
So, 02.10. 20:00 10.7° C wolkig
So, 02.10. 19:30 11.3° C wolkig
So, 02.10. 19:00 12.0° C bewölkt
Ortszeit Relative Feuchte Sichtweite
So, 02.10. 20:00 92% 30 km
So, 02.10. 14:00 82% 65 km
So, 02.10. 8:00 91% 35 km
So, 02.10. 2:00 93% 40 km
Sa, 01.10. 20:00 87% >70 km
Sa, 01.10. 14:00 90% 21 km
Sa, 01.10. 8:00 88% 23 km
Sa, 01.10. 2:00 95% 35 km
Ortszeit Relative Feuchte Sichtweite
So, 02.10. 22:00 87% 40 km
So, 02.10. 21:50 87% -
So, 02.10. 21:40 90% -
So, 02.10. 21:30 90% 40 km
So, 02.10. 21:20 90% -
So, 02.10. 21:10 89% -
So, 02.10. 21:00 89% 45 km
So, 02.10. 20:30 94% 35 km
So, 02.10. 20:00 92% 30 km
So, 02.10. 19:30 91% 50 km
So, 02.10. 19:00 87% >70 km
Ortszeit Niederschlagsmenge Niederschlagsart
So, 02.10. 20:00 3 l/m2 in 12 Std. Regen
So, 02.10. 14:00 0.8 l/m2 in 6 Std. Regen
So, 02.10. 8:00 0.1 l/m2 in 12 Std. Regen
So, 02.10. 2:00 0.1 l/m2 in 6 Std. Regen
Sa, 01.10. 20:00 1 l/m2 in 12 Std. Regen
Sa, 01.10. 14:00 0.9 l/m2 in 6 Std. Regen
Sa, 01.10. 8:00 0.0 l/m2 in 12 Std. -
Sa, 01.10. 2:00 0.0 l/m2 in 6 Std. -
Ortszeit Niederschlagsmenge Niederschlagsart
So, 02.10. 22:00 0.1 l/m2 in 1 Std. Regen
So, 02.10. 21:50 keine Meldung -
So, 02.10. 21:40 keine Meldung -
So, 02.10. 21:30 0.1 l/m2 in 1 Std. Schneeregen
So, 02.10. 21:20 keine Meldung -
So, 02.10. 21:10 keine Meldung -
So, 02.10. 21:00 0.0 l/m2 in 1 Std. -
So, 02.10. 20:30 0.0 l/m2 in 1 Std. -
So, 02.10. 20:00 0.0 l/m2 in 1 Std. Regen
So, 02.10. 19:30 0.0 l/m2 in 1 Std. -
So, 02.10. 19:00 0.8 l/m2 in 1 Std. Regen
Ortszeit Stärke Spitze Richtung
km/h Bft. km/h Grad Sektor
So, 02.10. 20:00 7 2 28 310° NW
So, 02.10. 14:00 9 2 28 230° SW
So, 02.10. 8:00 9 2 19 180° S
So, 02.10. 2:00 7 2 25 190° S
Sa, 01.10. 20:00 9 2 33 210° SW
Sa, 01.10. 14:00 11 2 54 190° S
Sa, 01.10. 8:00 7 2 29 180° S
Sa, 01.10. 2:00 7 2 14 190° S
Ortszeit Stärke Spitze Richtung
km/h Bft. km/h Grad Sektor
So, 02.10. 22:00 13 3 22 290° W
So, 02.10. 21:50 13 3 - 290° W
So, 02.10. 21:40 9 2 - 280° W
So, 02.10. 21:30 7 2 14 290° W
So, 02.10. 21:20 7 2 - 290° W
So, 02.10. 21:10 7 2 - 290° W
So, 02.10. 21:00 4 1 14 260° W
So, 02.10. 20:30 6 1 9 230° SW
So, 02.10. 20:00 7 2 15 310° NW
So, 02.10. 19:30 6 1 13 260° W
So, 02.10. 19:00 7 2 14 230° SW
Ortszeit Untergrenze Bedeckung Gattung
total tief tief mittel hoch
So, 02.10. 20:00 900 m 8/8 3/8 - - -
So, 02.10. 14:00 1500 m 8/8 8/8 - - -
So, 02.10. 8:00 480 m 8/8 4/8 - - -
So, 02.10. 2:00 1500 m 2/8 2/8 - - -
Sa, 01.10. 20:00 540 m 8/8 7/8 - - -
Sa, 01.10. 14:00 390 m 7/8 7/8 - - -
Sa, 01.10. 8:00 4500 m 8/8 8/8 - - -
Sa, 01.10. 2:00 - 0/8 0/8 - - -
Ortszeit Bedeckungsgrad in Achtel und Wolkenuntergrenze
So, 02.10. 22:00 7(1800m)
So, 02.10. 21:50 7(1800m)
So, 02.10. 21:40 8
So, 02.10. 21:30 3(750m) 7(1500m) 8(2400m)
So, 02.10. 21:20 3(750m) 7(1500m) 8(2400m)
So, 02.10. 21:10 8
So, 02.10. 21:00 1(840m) 6(1260m) 7(8700m)
So, 02.10. 20:30 1(1800m) 8(8400m)
So, 02.10. 20:00 3(900m) 8(8100m) 8(9000m)
So, 02.10. 19:30 3(960m) 6(8100m) 8(9000m)
So, 02.10. 19:00 5(930m) 8(8100m) 8(9000m)
Ortszeit Luftdruck NN (hPa) Tendenz (hPa in 3 Std.)
So, 02.10. 20:00 1019 + 1,6
So, 02.10. 14:00 1016 - 0,6
So, 02.10. 8:00 1017 + 0,1
So, 02.10. 2:00 1017 + 2,7
Sa, 01.10. 20:00 1011 + 1,8
Sa, 01.10. 14:00 1009 - 1,0
Sa, 01.10. 8:00 1012 - 0,8
Sa, 01.10. 2:00 1014 0,0
Ortszeit Luftdruck NN (hPa) Tendenz (hPa in 3 Std.)
So, 02.10. 22:00 1020 + 2,2
So, 02.10. 21:50 1020 keine Meldung
So, 02.10. 21:40 1020 keine Meldung
So, 02.10. 21:30 1020 + 2,2
So, 02.10. 21:20 1020 keine Meldung
So, 02.10. 21:10 1020 keine Meldung
So, 02.10. 21:00 1019 + 1,9
So, 02.10. 20:30 1019 + 1,8
So, 02.10. 20:00 1019 + 1,6
So, 02.10. 19:30 1018 + 1,1
So, 02.10. 19:00 1017 + 0,8
Ortszeit Schneehöhe (cm)
So, 02.10. 20:00 0
So, 02.10. 14:00 0
So, 02.10. 8:00 0
So, 02.10. 2:00 0
Sa, 01.10. 20:00 0
Sa, 01.10. 14:00 0
Sa, 01.10. 8:00 0
Sa, 01.10. 2:00 0
Ortszeit Schneehöhe (cm)
So, 02.10. 22:00 0
So, 02.10. 21:50 0
So, 02.10. 21:40 0
So, 02.10. 21:30 0
So, 02.10. 21:20 0
So, 02.10. 21:10 0
So, 02.10. 21:00 0
So, 02.10. 20:30 0
So, 02.10. 20:00 0
So, 02.10. 19:30 0
So, 02.10. 19:00 0
Link zu dieser Seite / Seite empfehlen

Das Wetter in ...